createdAt,value
2022-12-08T00:01:57.734Z,24.50
2022-12-08T00:04:26.313Z,24.50
2022-12-08T00:07:13.202Z,22.00
2022-12-08T00:09:42.374Z,24.25
2022-12-08T00:12:13.466Z,24.00
2022-12-08T00:14:44.632Z,22.00
2022-12-08T00:17:15.309Z,24.00
2022-12-08T00:19:43.869Z,24.25
2022-12-08T00:22:15.562Z,23.75
2022-12-08T00:24:46.743Z,24.25
2022-12-08T00:27:15.997Z,23.00
2022-12-08T00:29:45.845Z,24.00
2022-12-08T00:32:14.083Z,23.00
2022-12-08T00:34:42.775Z,23.00
2022-12-08T00:37:10.933Z,24.25
2022-12-08T00:39:40.305Z,21.00
2022-12-08T00:42:14.608Z,24.25
2022-12-08T00:44:45.322Z,21.00
2022-12-08T00:47:14.640Z,20.00
2022-12-08T00:49:44.185Z,23.00
2022-12-08T00:52:13.244Z,22.25
2022-12-08T00:54:41.807Z,23.25
2022-12-08T00:57:10.355Z,21.25
2022-12-08T00:59:40.323Z,20.25
2022-12-08T01:02:08.412Z,21.00
2022-12-08T01:04:38.832Z,21.25
2022-12-08T01:07:07.054Z,21.00
2022-12-08T01:09:35.553Z,22.25
2022-12-08T01:12:03.797Z,23.00
2022-12-08T01:14:32.413Z,21.50
2022-12-08T01:17:00.595Z,21.00
2022-12-08T01:19:29.265Z,21.75
2022-12-08T01:21:57.554Z,21.75
2022-12-08T01:24:26.885Z,21.33
2022-12-08T01:26:55.042Z,21.00
2022-12-08T01:29:23.552Z,21.75
2022-12-08T01:31:51.722Z,21.25
2022-12-08T01:34:20.093Z,20.50
2022-12-08T01:36:48.423Z,20.25
2022-12-08T01:39:18.455Z,21.25
2022-12-08T01:41:47.952Z,20.00
2022-12-08T01:44:16.192Z,21.75
2022-12-08T01:46:46.122Z,19.00
2022-12-08T01:49:23.305Z,21.00
2022-12-08T01:52:12.272Z,20.00
2022-12-08T01:54:48.078Z,22.00
2022-12-08T01:57:24.091Z,20.75
2022-12-08T02:00:02.880Z,22.25
2022-12-08T02:03:01.032Z,20.00
2022-12-08T02:05:34.556Z,21.25
2022-12-08T02:08:07.013Z,20.00
2022-12-08T02:10:38.633Z,20.00
2022-12-08T02:13:13.346Z,21.00
2022-12-08T02:15:41.846Z,20.50
2022-12-08T02:18:28.594Z,20.00
2022-12-08T02:21:13.687Z,22.00
2022-12-08T02:23:50.780Z,21.00
2022-12-08T02:26:38.551Z,20.33
2022-12-08T02:29:27.998Z,21.00
2022-12-08T02:32:12.594Z,20.25
2022-12-08T02:34:59.762Z,22.00
2022-12-08T02:37:28.161Z,20.00
2022-12-08T02:40:04.573Z,21.33
2022-12-08T02:42:38.841Z,20.00
2022-12-08T02:45:09.569Z,20.75
2022-12-08T02:47:39.816Z,20.25
2022-12-08T02:50:08.613Z,20.00
2022-12-08T02:52:43.341Z,20.00
2022-12-08T02:55:28.531Z,19.00
2022-12-08T02:58:16.231Z,19.25
2022-12-08T03:01:09.445Z,20.00
2022-12-08T03:03:52.606Z,21.00
2022-12-08T03:06:39.616Z,20.00
2022-12-08T03:09:17.960Z,20.33
2022-12-08T03:11:57.023Z,19.00
2022-12-08T03:14:25.809Z,20.25
2022-12-08T03:16:56.289Z,21.00
2022-12-08T03:19:29.232Z,21.00
2022-12-08T03:22:03.489Z,21.50
2022-12-08T03:24:37.044Z,19.00
2022-12-08T03:27:09.290Z,20.00
2022-12-08T03:29:38.064Z,20.25
2022-12-08T03:32:13.449Z,22.00
2022-12-08T03:34:44.690Z,20.00
2022-12-08T03:37:14.020Z,20.00
2022-12-08T03:39:43.189Z,21.25
2022-12-08T03:42:11.528Z,21.00
2022-12-08T03:44:41.194Z,20.00
2022-12-08T03:47:09.410Z,20.33
2022-12-08T03:49:38.101Z,20.00
2022-12-08T03:52:06.443Z,19.50
2022-12-08T03:54:36.270Z,21.00
2022-12-08T03:57:04.551Z,19.00
2022-12-08T03:59:33.902Z,21.00
2022-12-08T04:02:02.230Z,19.00
2022-12-08T04:04:31.389Z,20.25
2022-12-08T04:06:59.651Z,20.00
2022-12-08T04:09:28.251Z,19.00
2022-12-08T04:11:56.531Z,20.00
2022-12-08T04:14:26.323Z,19.25
2022-12-08T04:16:54.549Z,20.00
2022-12-08T04:19:23.114Z,19.50
2022-12-08T04:21:52.160Z,20.50
2022-12-08T04:24:20.818Z,18.25
2022-12-08T04:26:50.269Z,19.25
2022-12-08T04:29:18.968Z,18.33
2022-12-08T04:31:47.251Z,19.50
2022-12-08T04:34:17.099Z,18.00
2022-12-08T04:36:45.380Z,19.25
2022-12-08T04:39:13.900Z,18.50
2022-12-08T04:41:42.099Z,18.00
2022-12-08T04:44:10.721Z,20.00
2022-12-08T04:46:43.116Z,18.33
2022-12-08T04:49:13.511Z,18.33
2022-12-08T04:51:42.370Z,18.33
2022-12-08T04:54:10.991Z,18.50
2022-12-08T04:56:39.241Z,18.00
2022-12-08T04:59:07.802Z,19.00
2022-12-08T05:01:36.095Z,19.33
2022-12-08T05:04:04.969Z,19.00
2022-12-08T05:06:33.213Z,19.00
2022-12-08T05:09:01.870Z,19.00
2022-12-08T05:11:30.101Z,18.50
2022-12-08T05:13:58.760Z,17.00
2022-12-08T05:16:27.037Z,19.00
2022-12-08T05:18:55.670Z,19.00
2022-12-08T05:21:24.767Z,17.50
2022-12-08T05:23:53.456Z,19.25
2022-12-08T05:26:21.619Z,19.00
2022-12-08T05:28:50.159Z,19.25
2022-12-08T05:31:18.474Z,18.00
2022-12-08T05:33:47.138Z,18.00
2022-12-08T05:36:16.470Z,18.00
2022-12-08T05:38:45.534Z,18.00
2022-12-08T05:41:15.999Z,18.00
2022-12-08T05:43:45.201Z,19.00
2022-12-08T05:46:14.409Z,19.00
2022-12-08T05:48:43.432Z,18.00
2022-12-08T05:51:22.598Z,19.00
2022-12-08T05:53:52.423Z,19.00
2022-12-08T05:56:21.453Z,18.00
2022-12-08T05:58:50.479Z,18.00
2022-12-08T06:01:32.143Z,18.50
2022-12-08T06:04:02.192Z,17.25
2022-12-08T06:06:31.005Z,18.00
2022-12-08T06:08:59.552Z,20.00
2022-12-08T06:11:29.886Z,19.25
2022-12-08T06:13:59.300Z,17.00
2022-12-08T06:16:28.278Z,18.00
2022-12-08T06:18:57.220Z,17.25
2022-12-08T06:21:25.552Z,18.00
2022-12-08T06:23:55.060Z,17.00
2022-12-08T06:26:23.829Z,17.00
2022-12-08T06:28:53.580Z,17.50
2022-12-08T06:31:26.579Z,17.50
2022-12-08T06:33:55.769Z,18.00
2022-12-08T06:36:26.374Z,19.00
2022-12-08T06:38:55.403Z,19.00
2022-12-08T06:41:24.504Z,17.25
2022-12-08T06:43:57.442Z,18.25
2022-12-08T06:46:25.832Z,18.00
2022-12-08T06:48:54.612Z,17.67
2022-12-08T06:51:25.820Z,18.00
2022-12-08T06:53:55.419Z,16.00
2022-12-08T06:56:28.279Z,19.00
2022-12-08T06:58:56.952Z,17.25
2022-12-08T07:01:26.117Z,18.25
2022-12-08T07:03:54.744Z,18.00
2022-12-08T07:06:24.549Z,18.00
2022-12-08T07:08:53.237Z,19.00
2022-12-08T07:11:22.830Z,18.00
2022-12-08T07:13:52.158Z,18.00
2022-12-08T07:16:20.447Z,20.00
2022-12-08T07:18:49.426Z,19.00
2022-12-08T07:21:18.211Z,19.00
2022-12-08T07:23:52.702Z,19.00
2022-12-08T07:26:27.402Z,19.00
2022-12-08T07:28:55.935Z,20.00
2022-12-08T07:31:25.655Z,20.00
2022-12-08T07:33:57.422Z,19.25
2022-12-08T07:36:26.201Z,19.00
2022-12-08T07:38:54.820Z,19.25
2022-12-08T07:41:24.515Z,19.50
2022-12-08T07:43:54.542Z,18.25
2022-12-08T07:46:24.491Z,19.25
2022-12-08T07:48:54.182Z,18.00
2022-12-08T07:51:22.340Z,19.25
2022-12-08T07:53:54.183Z,18.25
2022-12-08T07:56:23.354Z,17.00
2022-12-08T07:58:52.013Z,19.00
2022-12-08T08:01:26.285Z,19.50
2022-12-08T08:03:57.083Z,18.50
2022-12-08T08:06:25.430Z,18.50
2022-12-08T08:08:55.091Z,19.00
2022-12-08T08:11:23.950Z,19.00
2022-12-08T08:13:53.923Z,17.25
2022-12-08T08:16:22.137Z,19.00
2022-12-08T08:18:51.791Z,19.00
2022-12-08T08:24:09.643Z,17.25
2022-12-08T08:26:38.190Z,18.00
2022-12-08T08:29:06.722Z,19.00
2022-12-08T08:31:34.832Z,18.25
2022-12-08T08:34:06.612Z,17.00
2022-12-08T08:36:35.002Z,18.00
2022-12-08T08:39:04.835Z,16.00
2022-12-08T08:41:33.546Z,18.25
2022-12-08T08:44:02.065Z,18.00
2022-12-08T08:46:30.320Z,17.33
2022-12-08T08:48:59.022Z,19.25
2022-12-08T08:51:27.125Z,18.25
2022-12-08T08:53:55.653Z,17.25
2022-12-08T08:56:24.443Z,19.75
2022-12-08T08:58:54.414Z,19.00
2022-12-08T09:01:25.948Z,19.25
2022-12-08T09:03:55.279Z,19.25
2022-12-08T09:06:24.702Z,20.00
2022-12-08T09:08:53.208Z,19.25
2022-12-08T09:11:23.633Z,20.00
2022-12-08T09:13:54.293Z,19.25
2022-12-08T09:16:23.114Z,19.25
2022-12-08T09:18:51.840Z,20.00
2022-12-08T09:21:23.253Z,20.25
2022-12-08T09:23:56.193Z,18.25
2022-12-08T09:26:27.127Z,19.50
2022-12-08T09:28:56.676Z,19.00
2022-12-08T09:31:25.226Z,18.25
2022-12-08T09:33:54.867Z,20.00
2022-12-08T09:36:23.155Z,19.25
2022-12-08T09:38:53.926Z,20.00
2022-12-08T09:41:48.540Z,20.00
2022-12-08T09:44:42.399Z,20.25
2022-12-08T09:47:27.484Z,21.00
2022-12-08T09:50:39.688Z,20.25
2022-12-08T09:53:17.262Z,19.00
2022-12-08T09:56:06.561Z,21.25
2022-12-08T09:58:45.540Z,20.50
2022-12-08T10:01:14.350Z,19.00
2022-12-08T10:03:42.992Z,22.33
2022-12-08T10:06:36.420Z,21.50
2022-12-08T10:09:46.592Z,19.00
2022-12-08T10:12:15.096Z,20.50
2022-12-08T10:14:56.203Z,22.50
2022-12-08T10:17:28.350Z,21.75
2022-12-08T10:20:03.885Z,19.50
2022-12-08T10:22:38.681Z,20.50
2022-12-08T10:25:19.561Z,21.25
2022-12-08T10:27:53.239Z,21.00
2022-12-08T10:30:22.475Z,22.25
2022-12-08T10:32:53.350Z,23.33
2022-12-08T10:35:23.441Z,22.00
2022-12-08T10:37:57.706Z,23.00
2022-12-08T10:40:37.997Z,22.25
2022-12-08T10:43:21.252Z,23.00
2022-12-08T10:45:49.523Z,21.00
2022-12-08T10:48:27.236Z,22.50
2022-12-08T10:50:59.051Z,21.33
2022-12-08T10:53:28.862Z,23.25
2022-12-08T10:56:03.039Z,24.00
2022-12-08T10:58:36.380Z,23.00
2022-12-08T11:01:10.555Z,23.00
2022-12-08T11:03:52.908Z,24.00
2022-12-08T11:06:36.419Z,23.00
2022-12-08T11:09:25.492Z,24.00
2022-12-08T11:11:57.474Z,24.00
2022-12-08T11:14:45.131Z,22.25
2022-12-08T11:17:22.323Z,24.00
2022-12-08T11:20:08.919Z,24.00
2022-12-08T11:22:42.632Z,23.00
2022-12-08T11:25:27.244Z,23.00
2022-12-08T11:28:00.600Z,22.25
2022-12-08T11:30:38.519Z,22.33
2022-12-08T11:33:19.949Z,23.25
2022-12-08T11:36:03.191Z,22.25
2022-12-08T11:38:32.751Z,23.25
2022-12-08T11:41:07.456Z,24.00
2022-12-08T11:43:55.150Z,23.00
2022-12-08T11:46:49.603Z,24.25
2022-12-08T11:49:19.143Z,25.25
2022-12-08T11:51:57.524Z,23.00
2022-12-08T11:54:35.799Z,22.33
2022-12-08T11:57:08.252Z,24.33
2022-12-08T11:59:40.083Z,24.50
2022-12-08T12:02:27.073Z,24.25
2022-12-08T12:05:07.726Z,23.00
2022-12-08T12:08:02.114Z,23.75
2022-12-08T12:10:36.363Z,23.75
2022-12-08T12:13:23.438Z,25.00
2022-12-08T12:16:13.497Z,26.00
2022-12-08T12:19:02.920Z,25.00
2022-12-08T12:21:35.544Z,26.25
2022-12-08T12:24:11.332Z,25.25
2022-12-08T12:26:54.687Z,25.33
2022-12-08T12:29:28.376Z,24.00
2022-12-08T12:32:00.527Z,24.25
2022-12-08T12:34:34.696Z,22.25
2022-12-08T12:37:11.380Z,24.00
2022-12-08T12:39:57.731Z,25.00
2022-12-08T12:42:49.702Z,23.00
2022-12-08T12:45:18.263Z,24.00
2022-12-08T12:47:56.598Z,26.25
2022-12-08T12:50:34.522Z,23.75
2022-12-08T12:53:13.599Z,25.25
2022-12-08T12:56:00.497Z,26.00
2022-12-08T12:58:28.743Z,23.00
2022-12-08T13:01:15.492Z,24.50
2022-12-08T13:03:47.640Z,25.00
2022-12-08T13:06:38.047Z,23.00
2022-12-08T13:09:08.357Z,23.00
2022-12-08T13:11:48.054Z,22.67
2022-12-08T13:14:30.122Z,23.75
2022-12-08T13:17:00.637Z,23.00
2022-12-08T13:19:32.319Z,23.25
2022-12-08T13:22:01.563Z,24.00
2022-12-08T13:24:33.788Z,25.25
2022-12-08T13:27:05.440Z,22.00
2022-12-08T13:29:38.814Z,22.50
2022-12-08T13:32:09.395Z,23.25
2022-12-08T13:34:53.643Z,22.25
2022-12-08T13:37:54.333Z,23.00
2022-12-08T13:40:26.194Z,23.25
2022-12-08T13:43:13.843Z,23.33
2022-12-08T13:46:52.969Z,22.25
2022-12-08T13:56:16.753Z,22.00
2022-12-08T13:57:34.894Z,24.75
2022-12-08T14:00:07.946Z,23.00
2022-12-08T14:02:47.711Z,24.50
2022-12-08T14:05:30.056Z,24.00
2022-12-08T14:08:36.305Z,24.00
2022-12-08T14:11:33.833Z,22.67
2022-12-08T14:14:09.472Z,23.00
2022-12-08T14:16:41.010Z,23.00
2022-12-08T14:19:20.372Z,22.00
2022-12-08T14:21:57.041Z,24.00
2022-12-08T14:24:27.142Z,24.00
2022-12-08T14:27:01.554Z,23.33
2022-12-08T14:29:50.660Z,23.25
2022-12-08T14:32:34.963Z,21.25
2022-12-08T14:35:09.102Z,23.00
2022-12-08T14:38:12.718Z,24.75
2022-12-08T14:40:43.963Z,23.00
2022-12-08T14:43:15.183Z,25.00
2022-12-08T14:45:43.502Z,25.00
2022-12-08T14:48:38.913Z,22.00
2022-12-08T14:51:13.624Z,23.25
2022-12-08T14:53:48.139Z,24.50
2022-12-08T14:56:39.819Z,23.50
2022-12-08T14:59:13.507Z,23.00
2022-12-08T15:01:43.183Z,24.25
2022-12-08T15:04:15.194Z,25.00
2022-12-08T15:07:07.178Z,24.33
2022-12-08T15:09:47.452Z,24.25
2022-12-08T15:12:15.887Z,25.25
2022-12-08T15:14:56.523Z,24.25
2022-12-08T15:17:50.423Z,26.50
2022-12-08T15:20:45.162Z,25.50
2022-12-08T15:23:28.173Z,23.75
2022-12-08T15:25:57.892Z,25.00
2022-12-08T15:28:30.219Z,26.00
2022-12-08T15:30:59.649Z,24.50
2022-12-08T15:33:28.248Z,27.00
2022-12-08T15:35:57.965Z,27.00
2022-12-08T15:38:31.704Z,25.00
2022-12-08T15:41:00.824Z,27.00
2022-12-08T15:43:32.113Z,27.00
2022-12-08T15:46:00.732Z,25.00
2022-12-08T15:48:30.145Z,28.00
2022-12-08T15:50:59.051Z,25.25
2022-12-08T15:53:27.223Z,26.00
2022-12-08T15:56:27.091Z,29.00
2022-12-08T15:58:53.719Z,26.00
2022-12-08T16:01:24.160Z,28.00
2022-12-08T16:04:36.778Z,25.50
2022-12-08T16:09:39.004Z,27.25
2022-12-08T16:18:17.356Z,29.00
2022-12-08T16:23:42.982Z,29.00
2022-12-08T16:26:44.391Z,30.25
2022-12-08T16:29:07.038Z,29.00
2022-12-08T16:31:35.788Z,30.25
2022-12-08T16:34:04.476Z,29.00
2022-12-08T16:36:32.870Z,28.00
2022-12-08T16:39:01.443Z,31.25
2022-12-08T16:41:48.499Z,30.25
2022-12-08T16:44:18.149Z,32.33
2022-12-08T16:46:46.483Z,30.00
2022-12-08T16:49:15.827Z,31.50
2022-12-08T16:51:44.241Z,30.00
2022-12-08T16:54:12.893Z,29.25
2022-12-08T16:56:41.214Z,29.50
2022-12-08T16:59:09.847Z,30.50
2022-12-08T17:01:38.232Z,31.00
2022-12-08T17:04:30.624Z,29.00
2022-12-08T17:06:55.289Z,30.50
2022-12-08T17:09:24.741Z,29.00
2022-12-08T17:11:53.056Z,29.00
2022-12-08T17:14:22.788Z,32.00
2022-12-08T17:16:51.344Z,27.00
2022-12-08T17:19:20.139Z,28.25
2022-12-08T17:21:48.497Z,29.25
2022-12-08T17:24:21.904Z,29.00
2022-12-08T17:26:52.179Z,31.00
2022-12-08T17:29:22.368Z,29.00
2022-12-08T17:31:51.747Z,28.33
2022-12-08T17:34:21.655Z,29.25
2022-12-08T17:36:50.287Z,28.25
2022-12-08T17:39:19.489Z,28.67
2022-12-08T17:41:48.183Z,31.25
2022-12-08T17:44:19.090Z,31.33
2022-12-08T17:46:52.537Z,32.00
2022-12-08T17:49:30.483Z,31.67
2022-12-08T17:52:04.052Z,29.00
2022-12-08T17:54:34.388Z,30.00
2022-12-08T17:57:02.911Z,31.00
2022-12-08T17:59:31.860Z,32.00
2022-12-08T18:02:00.394Z,32.00
2022-12-08T18:04:29.278Z,34.00
2022-12-08T18:07:00.532Z,32.50
2022-12-08T18:09:31.319Z,33.25
2022-12-08T18:12:00.074Z,32.00
2022-12-08T18:14:29.314Z,31.75
2022-12-08T18:16:57.681Z,33.25
2022-12-08T18:19:26.607Z,32.33
2022-12-08T18:21:54.908Z,33.00
2022-12-08T18:24:24.085Z,31.25
2022-12-08T18:26:52.877Z,31.50
2022-12-08T18:29:23.968Z,31.50
2022-12-08T18:31:53.202Z,30.25
2022-12-08T18:34:22.008Z,34.00
2022-12-08T18:36:50.330Z,33.33
2022-12-08T18:39:25.742Z,31.50
2022-12-08T18:41:54.186Z,31.25
2022-12-08T18:44:24.313Z,32.50
2022-12-08T18:46:53.304Z,33.00
2022-12-08T18:49:23.279Z,33.25
2022-12-08T18:51:51.599Z,34.25
2022-12-08T18:54:22.146Z,33.25
2022-12-08T18:56:55.930Z,33.00
2022-12-08T18:59:25.528Z,32.67
2022-12-08T19:01:53.707Z,33.50
2022-12-08T19:04:29.921Z,33.00
2022-12-08T19:06:58.993Z,34.00
2022-12-08T19:09:29.177Z,34.00
2022-12-08T19:11:57.815Z,31.00
2022-12-08T19:14:28.809Z,33.50
2022-12-08T19:16:57.956Z,33.25
2022-12-08T19:19:27.596Z,32.25
2022-12-08T19:21:56.740Z,31.00
2022-12-08T19:24:25.569Z,31.00
2022-12-08T19:26:53.840Z,32.75
2022-12-08T19:29:22.408Z,31.00
2022-12-08T19:31:50.930Z,30.00
2022-12-08T19:34:19.920Z,33.00
2022-12-08T19:36:48.472Z,34.25
2022-12-08T19:39:37.938Z,33.00
2022-12-08T19:42:45.136Z,32.00
2022-12-08T19:45:17.483Z,32.00
2022-12-08T19:47:45.912Z,34.00
2022-12-08T19:50:35.833Z,32.00
2022-12-08T19:53:09.946Z,32.00
2022-12-08T19:55:38.685Z,30.00
2022-12-08T19:58:07.238Z,31.75
2022-12-08T20:00:38.615Z,31.00
2022-12-08T20:03:07.776Z,31.00
2022-12-08T20:05:37.251Z,32.00
2022-12-08T20:08:06.277Z,33.25
2022-12-08T20:10:39.168Z,32.00
2022-12-08T20:13:27.237Z,32.25
2022-12-08T20:15:57.959Z,33.33
2022-12-08T20:18:26.278Z,32.00
2022-12-08T20:20:55.097Z,31.33
2022-12-08T20:23:23.614Z,31.00
2022-12-08T20:25:52.441Z,31.00
2022-12-08T20:28:20.912Z,31.75
2022-12-08T20:30:49.532Z,30.25
2022-12-08T20:33:19.315Z,32.25
2022-12-08T20:35:48.693Z,31.25
2022-12-08T20:38:17.421Z,32.00
2022-12-08T20:40:47.720Z,28.00
2022-12-08T20:43:16.205Z,30.50
2022-12-08T20:45:44.481Z,30.25
2022-12-08T20:48:14.164Z,31.00
2022-12-08T20:50:43.172Z,31.50
2022-12-08T20:53:11.849Z,29.00
2022-12-08T20:55:43.004Z,29.25
2022-12-08T20:58:12.322Z,28.00
2022-12-08T21:00:40.759Z,28.00
2022-12-08T21:03:09.807Z,29.25
2022-12-08T21:05:39.091Z,29.00
2022-12-08T21:08:08.100Z,31.00
2022-12-08T21:10:42.199Z,30.00
2022-12-08T21:13:13.619Z,28.33
2022-12-08T21:15:46.057Z,28.50
2022-12-08T21:18:17.106Z,29.75
2022-12-08T21:20:45.513Z,29.00
2022-12-08T21:23:14.384Z,30.00
2022-12-08T21:25:44.885Z,32.00
2022-12-08T21:28:15.687Z,29.75
2022-12-08T21:30:45.938Z,29.00
2022-12-08T21:33:14.831Z,27.50
2022-12-08T21:35:44.041Z,31.25
2022-12-08T21:38:12.759Z,30.33
2022-12-08T21:40:40.988Z,30.00
2022-12-08T21:43:09.749Z,30.00
2022-12-08T21:45:38.378Z,29.00
2022-12-08T21:48:11.990Z,28.50
2022-12-08T21:50:40.831Z,32.00
2022-12-08T21:53:09.821Z,30.25
2022-12-08T21:55:39.165Z,29.50
2022-12-08T21:58:07.899Z,29.75
2022-12-08T22:00:36.360Z,28.25
2022-12-08T22:03:06.829Z,29.50
2022-12-08T22:05:36.180Z,27.25
2022-12-08T22:08:06.138Z,31.00
2022-12-08T22:10:34.972Z,30.00
2022-12-08T22:13:03.654Z,26.67
2022-12-08T22:15:33.139Z,29.00
2022-12-08T22:18:02.055Z,29.00
2022-12-08T22:20:30.498Z,30.50
2022-12-08T22:22:59.388Z,30.33
2022-12-08T22:25:28.033Z,27.00
2022-12-08T22:27:56.642Z,29.00
2022-12-08T22:30:25.136Z,30.50
2022-12-08T22:32:54.189Z,32.25
2022-12-08T22:35:22.944Z,32.25
2022-12-08T22:37:51.705Z,30.00
2022-12-08T22:40:20.162Z,30.25
2022-12-08T22:42:48.804Z,30.00
2022-12-08T22:45:17.104Z,29.25
2022-12-08T22:47:45.823Z,29.33
2022-12-08T22:50:14.156Z,32.67
2022-12-08T22:52:42.634Z,31.00
2022-12-08T22:55:10.767Z,31.00
2022-12-08T22:57:40.586Z,30.50
2022-12-08T23:00:11.952Z,32.25
2022-12-08T23:02:40.823Z,30.00
2022-12-08T23:05:09.826Z,30.00
2022-12-08T23:07:39.543Z,29.33
2022-12-08T23:10:09.622Z,30.25
2022-12-08T23:12:39.335Z,32.00
2022-12-08T23:15:08.274Z,30.00
2022-12-08T23:17:37.246Z,31.00
2022-12-08T23:20:07.100Z,32.25
2022-12-08T23:22:36.104Z,31.25
2022-12-08T23:25:05.264Z,31.75
2022-12-08T23:27:34.341Z,29.50
2022-12-08T23:30:06.016Z,31.00
2022-12-08T23:32:35.058Z,31.00
2022-12-08T23:35:04.615Z,29.75
2022-12-08T23:37:33.175Z,34.25
2022-12-08T23:40:01.502Z,32.25
2022-12-08T23:42:30.673Z,28.25
2022-12-08T23:44:59.053Z,29.33
2022-12-08T23:47:28.990Z,30.25
2022-12-08T23:49:57.736Z,30.50
2022-12-08T23:52:27.187Z,29.00
2022-12-08T23:54:56.123Z,32.25
2022-12-08T23:57:25.003Z,29.25
2022-12-08T23:59:53.517Z,31.00
